createdAt,value
2023-03-02T00:00:44.464Z,22.39
2023-03-02T00:05:51.816Z,22.37
2023-03-02T00:10:59.226Z,22.27
2023-03-02T00:16:06.668Z,22.19
2023-03-02T00:21:13.850Z,22.25
2023-03-02T00:26:21.100Z,22.18
2023-03-02T00:31:28.305Z,22.28
2023-03-02T00:36:35.464Z,22.40
2023-03-02T00:41:42.625Z,22.35
2023-03-02T00:46:49.839Z,22.40
2023-03-02T00:51:57.047Z,22.47
2023-03-02T00:57:04.191Z,22.50
2023-03-02T01:02:11.473Z,22.60
2023-03-02T01:07:18.706Z,22.63
2023-03-02T01:12:25.939Z,22.72
2023-03-02T01:17:33.208Z,22.75
2023-03-02T01:22:40.644Z,22.81
2023-03-02T01:27:56.949Z,22.86
2023-03-02T01:33:04.597Z,22.92
2023-03-02T01:38:13.379Z,22.97
2023-03-02T01:43:21.202Z,23.02
2023-03-02T01:48:28.654Z,23.07
2023-03-02T01:53:36.178Z,23.11
2023-03-02T01:58:43.424Z,23.16
2023-03-02T02:03:50.895Z,23.18
2023-03-02T02:08:58.317Z,23.18
2023-03-02T02:14:05.712Z,23.22
2023-03-02T02:19:13.096Z,23.27
2023-03-02T02:24:20.482Z,23.29
2023-03-02T02:29:27.907Z,23.30
2023-03-02T02:34:35.328Z,23.28
2023-03-02T02:39:42.783Z,23.22
2023-03-02T02:44:50.126Z,23.14
2023-03-02T02:49:57.531Z,23.12
2023-03-02T02:55:05.057Z,23.09
2023-03-02T03:00:12.554Z,23.09
2023-03-02T03:05:19.956Z,23.09
2023-03-02T03:10:27.533Z,23.10
2023-03-02T03:15:34.997Z,23.13
2023-03-02T03:20:42.361Z,23.14
2023-03-02T03:25:49.750Z,23.16
2023-03-02T03:30:57.099Z,23.18
2023-03-02T03:36:04.434Z,23.20
2023-03-02T03:41:11.753Z,23.24
2023-03-02T03:46:19.129Z,23.24
2023-03-02T03:51:26.386Z,23.27
2023-03-02T03:56:34.415Z,23.27
2023-03-02T04:01:41.378Z,23.24
2023-03-02T04:06:48.679Z,23.19
2023-03-02T04:11:56.011Z,23.13
2023-03-02T04:17:03.336Z,23.05
2023-03-02T04:22:10.745Z,23.00
2023-03-02T04:27:18.196Z,22.99
2023-03-02T04:32:25.672Z,23.00
2023-03-02T04:37:33.096Z,23.02
2023-03-02T04:42:40.392Z,23.01
2023-03-02T04:47:47.684Z,23.01
2023-03-02T04:52:54.922Z,23.03
2023-03-02T04:58:02.457Z,23.06
2023-03-02T05:03:09.721Z,23.06
2023-03-02T05:08:17.141Z,23.07
2023-03-02T05:13:24.456Z,23.09
2023-03-02T05:18:31.934Z,23.10
2023-03-02T05:23:39.174Z,23.07
2023-03-02T05:28:46.542Z,23.05
2023-03-02T05:33:53.844Z,22.99
2023-03-02T05:39:01.168Z,22.89
2023-03-02T05:44:08.658Z,22.77
2023-03-02T05:49:15.859Z,22.73
2023-03-02T05:54:23.438Z,22.70
2023-03-02T05:59:30.836Z,22.70
2023-03-02T06:04:38.111Z,22.70
2023-03-02T06:09:45.475Z,22.72
2023-03-02T06:14:52.780Z,22.71
2023-03-02T06:20:00.042Z,22.71
2023-03-02T06:25:07.361Z,22.74
2023-03-02T06:30:14.660Z,22.74
2023-03-02T06:35:22.043Z,22.77
2023-03-02T06:40:29.180Z,22.77
2023-03-02T06:45:36.588Z,22.77
2023-03-02T06:50:43.876Z,22.77
2023-03-02T06:55:51.266Z,22.76
2023-03-02T07:00:58.764Z,22.72
2023-03-02T07:06:06.261Z,22.65
2023-03-02T07:11:13.468Z,22.58
2023-03-02T07:16:20.857Z,22.54
2023-03-02T07:21:28.203Z,22.53
2023-03-02T07:26:35.583Z,22.53
2023-03-02T07:31:43.110Z,22.56
2023-03-02T07:36:50.392Z,22.58
2023-03-02T07:41:57.868Z,22.56
2023-03-02T07:47:05.289Z,22.60
2023-03-02T07:52:12.549Z,22.59
2023-03-02T07:57:20.038Z,22.61
2023-03-02T08:02:27.500Z,22.63
2023-03-02T08:07:34.736Z,22.65
2023-03-02T08:12:42.220Z,22.64
2023-03-02T08:17:49.572Z,22.64
2023-03-02T08:22:56.989Z,22.56
2023-03-02T08:28:04.293Z,22.48
2023-03-02T08:33:11.733Z,22.58
2023-03-02T08:38:19.429Z,22.83
2023-03-02T08:43:26.710Z,22.73
2023-03-02T08:48:34.112Z,22.68
2023-03-02T08:53:41.460Z,22.64
2023-03-02T08:58:48.924Z,22.69
2023-03-02T09:03:56.429Z,24.64
2023-03-02T09:09:03.820Z,24.35
2023-03-02T09:14:11.290Z,24.09
2023-03-02T09:19:18.801Z,23.96
2023-03-02T09:24:26.232Z,23.83
2023-03-02T09:29:33.515Z,23.71
2023-03-02T09:34:40.960Z,23.65
2023-03-02T09:39:48.429Z,23.60
2023-03-02T09:44:55.861Z,23.56
2023-03-02T09:50:03.331Z,23.36
2023-03-02T09:55:10.672Z,23.19
2023-03-02T10:00:20.203Z,23.24
2023-03-02T10:05:25.511Z,23.34
2023-03-02T10:10:32.802Z,23.29
2023-03-02T10:15:40.427Z,23.29
2023-03-02T10:20:47.859Z,23.26
2023-03-02T10:25:55.215Z,23.27
2023-03-02T10:31:05.113Z,23.28
2023-03-02T10:36:09.882Z,23.30
2023-03-02T10:41:17.195Z,23.31
2023-03-02T10:46:24.686Z,23.37
2023-03-02T10:51:32.067Z,23.36
2023-03-02T10:56:39.466Z,23.40
2023-03-02T11:01:46.857Z,23.43
2023-03-02T11:06:54.580Z,23.43
2023-03-02T11:12:02.899Z,23.47
2023-03-02T11:17:10.188Z,23.43
2023-03-02T11:22:17.458Z,23.42
2023-03-02T11:27:24.682Z,23.42
2023-03-02T11:32:32.181Z,23.53
2023-03-02T11:37:42.228Z,23.53
2023-03-02T11:42:49.620Z,23.61
2023-03-02T11:48:02.577Z,23.62
2023-03-02T11:53:04.402Z,23.64
2023-03-02T11:58:11.942Z,23.68
2023-03-02T12:03:19.338Z,23.71
2023-03-02T12:08:26.705Z,23.81
2023-03-02T12:13:34.026Z,23.84
2023-03-02T12:18:41.371Z,23.88
2023-03-02T12:23:48.758Z,23.87
2023-03-02T12:28:57.743Z,23.93
2023-03-02T12:34:03.486Z,23.99
2023-03-02T12:39:11.016Z,23.88
2023-03-02T12:44:19.934Z,23.76
2023-03-02T12:49:27.397Z,23.86
2023-03-02T12:54:34.869Z,23.90
2023-03-02T12:59:43.126Z,23.93
2023-03-02T13:04:50.474Z,24.00
2023-03-02T13:09:58.103Z,24.06
2023-03-02T13:15:05.301Z,24.07
2023-03-02T13:20:12.558Z,24.10
2023-03-02T13:25:19.919Z,24.17
2023-03-02T13:30:27.238Z,24.16
2023-03-02T13:35:34.458Z,24.29
2023-03-02T13:40:41.900Z,24.24
2023-03-02T13:45:49.281Z,24.42
2023-03-02T13:50:56.735Z,24.38
2023-03-02T13:56:04.132Z,24.56
2023-03-02T14:01:11.559Z,24.43
2023-03-02T14:06:18.943Z,24.48
2023-03-02T14:11:26.200Z,24.46
2023-03-02T14:16:33.986Z,24.40
2023-03-02T14:21:43.887Z,24.50
2023-03-02T14:26:48.837Z,24.54
2023-03-02T14:31:56.053Z,24.54
2023-03-02T14:37:03.346Z,24.61
2023-03-02T14:42:10.808Z,24.60
2023-03-02T14:47:18.339Z,24.57
2023-03-02T14:52:25.669Z,24.63
2023-03-02T14:57:33.185Z,24.66
2023-03-02T15:02:40.728Z,24.79
2023-03-02T15:07:48.115Z,24.77
2023-03-02T15:12:55.567Z,24.84
2023-03-02T15:18:02.926Z,24.92
2023-03-02T15:23:10.425Z,25.01
2023-03-02T15:28:17.718Z,25.00
2023-03-02T15:33:25.255Z,25.02
2023-03-02T15:38:32.735Z,25.04
2023-03-02T15:43:40.152Z,24.77
2023-03-02T15:48:47.399Z,24.94
2023-03-02T15:53:54.767Z,24.97
2023-03-02T15:59:05.296Z,25.10
2023-03-02T16:04:12.776Z,25.11
2023-03-02T16:09:20.198Z,25.21
2023-03-02T16:14:27.555Z,25.20
2023-03-02T16:19:34.887Z,25.19
2023-03-02T16:24:42.466Z,25.10
2023-03-02T16:29:50.208Z,25.18
2023-03-02T16:34:57.597Z,25.22
2023-03-02T16:40:04.891Z,25.23
2023-03-02T16:45:12.301Z,25.25
2023-03-02T16:50:19.607Z,25.33
2023-03-02T16:55:26.951Z,25.49
2023-03-02T17:00:34.288Z,25.45
2023-03-02T17:05:47.063Z,25.18
2023-03-02T17:10:54.492Z,25.05
2023-03-02T17:16:01.872Z,24.94
2023-03-02T17:21:09.018Z,25.29
2023-03-02T17:26:16.479Z,25.89
2023-03-02T17:31:23.906Z,26.48
2023-03-02T17:36:31.009Z,25.98
2023-03-02T17:41:38.231Z,25.88
2023-03-02T17:46:45.723Z,25.79
2023-03-02T17:51:52.981Z,25.86
2023-03-02T17:57:00.339Z,25.74
2023-03-02T18:02:08.060Z,25.58
2023-03-02T18:07:15.354Z,25.46
2023-03-02T18:12:22.571Z,25.45
2023-03-02T18:17:29.819Z,25.35
2023-03-02T18:22:37.056Z,25.29
2023-03-02T18:27:44.693Z,25.29
2023-03-02T18:32:52.208Z,25.35
2023-03-02T18:37:59.708Z,25.18
2023-03-02T18:43:07.130Z,25.23
2023-03-02T18:48:14.645Z,25.24
2023-03-02T18:53:22.235Z,25.31
2023-03-02T18:58:32.162Z,25.12
2023-03-02T19:03:37.839Z,25.30
2023-03-02T19:08:45.391Z,25.13
2023-03-02T19:13:52.971Z,25.24
2023-03-02T19:19:00.643Z,25.20
2023-03-02T19:24:08.228Z,25.24
2023-03-02T19:29:15.842Z,25.11
2023-03-02T19:34:23.355Z,25.04
2023-03-02T19:39:31.069Z,25.09
2023-03-02T19:44:38.689Z,24.90
2023-03-02T19:49:46.240Z,24.67
2023-03-02T19:54:53.823Z,24.48
2023-03-02T20:00:01.431Z,24.28
2023-03-02T20:05:09.061Z,24.27
2023-03-02T20:10:16.657Z,24.08
2023-03-02T20:15:24.369Z,24.01
2023-03-02T20:20:32.508Z,23.95
2023-03-02T20:25:39.902Z,24.49
2023-03-02T20:30:47.566Z,24.12
2023-03-02T20:35:55.166Z,25.11
2023-03-02T20:41:02.707Z,25.54
2023-03-02T20:46:10.312Z,25.04
2023-03-02T20:51:17.574Z,24.95
2023-03-02T20:56:25.082Z,25.14
2023-03-02T21:01:32.671Z,25.11
2023-03-02T21:06:39.733Z,25.05
2023-03-02T21:11:47.155Z,25.11
2023-03-02T21:16:54.571Z,24.83
2023-03-02T21:22:01.825Z,24.89
2023-03-02T21:27:09.335Z,24.67
2023-03-02T21:32:17.040Z,24.92
2023-03-02T21:37:24.328Z,24.96
2023-03-02T21:42:31.773Z,24.96
2023-03-02T21:47:39.064Z,25.17
2023-03-02T21:52:46.311Z,25.06
2023-03-02T21:57:53.434Z,25.03
2023-03-02T22:03:00.658Z,25.07
2023-03-02T22:08:07.962Z,25.09
2023-03-02T22:13:15.128Z,25.12
2023-03-02T22:18:22.422Z,25.21
2023-03-02T22:23:29.648Z,25.29
2023-03-02T22:28:36.853Z,24.81
2023-03-02T22:33:44.132Z,24.53
2023-03-02T22:38:51.497Z,24.60
2023-03-02T22:43:58.739Z,24.80
2023-03-02T22:49:06.006Z,24.84
2023-03-02T22:54:13.215Z,24.69
2023-03-02T22:59:20.408Z,24.42
2023-03-02T23:04:27.857Z,24.29
2023-03-02T23:09:35.057Z,24.46
2023-03-02T23:14:42.212Z,24.39
2023-03-02T23:19:49.400Z,24.67
2023-03-02T23:24:56.697Z,24.50
2023-03-02T23:30:04.079Z,24.47
2023-03-02T23:35:11.245Z,24.53
2023-03-02T23:40:18.555Z,24.34
2023-03-02T23:45:26.210Z,24.14
2023-03-02T23:50:33.626Z,24.13
2023-03-02T23:55:41.276Z,24.26
